sensor_id;sensor_type;location;lat;lon;timestamp;P1;durP1;ratioP1;P2;durP2;ratioP2
73672;SDS011;61972;19.480;-99.240;2023-07-16T00:01:37;10.55;;;5.13;;
73672;SDS011;61972;19.480;-99.240;2023-07-16T00:04:03;9.93;;;5.10;;
73672;SDS011;61972;19.480;-99.240;2023-07-16T00:06:30;9.40;;;4.57;;
73672;SDS011;61972;19.480;-99.240;2023-07-16T00:08:56;8.80;;;4.60;;
73672;SDS011;61972;19.480;-99.240;2023-07-16T00:11:22;14.77;;;4.53;;
73672;SDS011;61972;19.480;-99.240;2023-07-16T00:13:51;9.65;;;4.80;;
73672;SDS011;61972;19.480;-99.240;2023-07-16T00:16:17;9.80;;;4.32;;
73672;SDS011;61972;19.480;-99.240;2023-07-16T00:18:44;9.60;;;4.35;;
73672;SDS011;61972;19.480;-99.240;2023-07-16T00:21:10;11.02;;;4.70;;
73672;SDS011;61972;19.480;-99.240;2023-07-16T00:23:36;10.30;;;4.50;;
73672;SDS011;61972;19.480;-99.240;2023-07-16T00:26:03;10.95;;;4.78;;
73672;SDS011;61972;19.480;-99.240;2023-07-16T00:28:29;11.32;;;4.22;;
73672;SDS011;61972;19.480;-99.240;2023-07-16T00:30:55;13.32;;;4.38;;
73672;SDS011;61972;19.480;-99.240;2023-07-16T00:33:21;9.75;;;4.32;;
73672;SDS011;61972;19.480;-99.240;2023-07-16T00:35:48;11.20;;;4.70;;
73672;SDS011;61972;19.480;-99.240;2023-07-16T00:38:16;9.18;;;4.45;;
73672;SDS011;61972;19.480;-99.240;2023-07-16T00:40:43;8.57;;;4.45;;
73672;SDS011;61972;19.480;-99.240;2023-07-16T00:43:10;8.07;;;4.28;;
73672;SDS011;61972;19.480;-99.240;2023-07-16T00:45:36;9.18;;;4.40;;
73672;SDS011;61972;19.480;-99.240;2023-07-16T00:48:04;9.10;;;4.03;;
73672;SDS011;61972;19.480;-99.240;2023-07-16T00:50:32;11.25;;;3.67;;
73672;SDS011;61972;19.480;-99.240;2023-07-16T00:53:00;13.48;;;4.72;;
73672;SDS011;61972;19.480;-99.240;2023-07-16T00:55:30;7.75;;;4.55;;
73672;SDS011;61972;19.480;-99.240;2023-07-16T00:57:58;10.43;;;4.63;;
73672;SDS011;61972;19.480;-99.240;2023-07-16T01:00:37;11.07;;;4.43;;
73672;SDS011;61972;19.480;-99.240;2023-07-16T01:03:05;8.80;;;4.30;;
73672;SDS011;61972;19.480;-99.240;2023-07-16T01:09:14;11.57;;;4.03;;
73672;SDS011;61972;19.480;-99.240;2023-07-16T01:11:17;9.80;;;4.15;;
73672;SDS011;61972;19.480;-99.240;2023-07-16T01:13:44;10.50;;;4.43;;
73672;SDS011;61972;19.480;-99.240;2023-07-16T01:16:20;10.48;;;4.97;;
73672;SDS011;61972;19.480;-99.240;2023-07-16T01:18:47;8.20;;;4.40;;
73672;SDS011;61972;19.480;-99.240;2023-07-16T01:21:15;10.88;;;4.55;;
73672;SDS011;61972;19.480;-99.240;2023-07-16T01:26:33;11.57;;;5.10;;
73672;SDS011;61972;19.480;-99.240;2023-07-16T01:29:31;9.10;;;4.65;;
73672;SDS011;61972;19.480;-99.240;2023-07-16T01:32:03;13.27;;;5.15;;
73672;SDS011;61972;19.480;-99.240;2023-07-16T01:34:32;14.48;;;4.88;;
73672;SDS011;61972;19.480;-99.240;2023-07-16T01:37:03;14.00;;;5.50;;
73672;SDS011;61972;19.480;-99.240;2023-07-16T01:39:30;13.83;;;5.13;;
73672;SDS011;61972;19.480;-99.240;2023-07-16T01:42:00;12.93;;;5.88;;
73672;SDS011;61972;19.480;-99.240;2023-07-16T01:44:27;13.25;;;4.85;;
73672;SDS011;61972;19.480;-99.240;2023-07-16T01:49:40;11.40;;;5.32;;
73672;SDS011;61972;19.480;-99.240;2023-07-16T01:52:08;12.67;;;5.53;;
73672;SDS011;61972;19.480;-99.240;2023-07-16T01:54:35;13.65;;;5.45;;
73672;SDS011;61972;19.480;-99.240;2023-07-16T01:57:01;14.25;;;5.35;;
73672;SDS011;61972;19.480;-99.240;2023-07-16T01:59:28;13.38;;;5.53;;
73672;SDS011;61972;19.480;-99.240;2023-07-16T02:01:54;11.77;;;6.00;;
73672;SDS011;61972;19.480;-99.240;2023-07-16T02:04:20;11.23;;;5.37;;
73672;SDS011;61972;19.480;-99.240;2023-07-16T02:06:46;16.55;;;5.50;;
73672;SDS011;61972;19.480;-99.240;2023-07-16T02:09:13;14.98;;;5.65;;
73672;SDS011;61972;19.480;-99.240;2023-07-16T02:11:39;14.77;;;6.18;;
73672;SDS011;61972;19.480;-99.240;2023-07-16T02:14:05;18.23;;;5.75;;
73672;SDS011;61972;19.480;-99.240;2023-07-16T02:16:31;15.63;;;6.20;;
73672;SDS011;61972;19.480;-99.240;2023-07-16T02:18:58;20.17;;;6.35;;
73672;SDS011;61972;19.480;-99.240;2023-07-16T02:21:24;12.63;;;5.75;;
73672;SDS011;61972;19.480;-99.240;2023-07-16T02:23:50;13.25;;;5.75;;
73672;SDS011;61972;19.480;-99.240;2023-07-16T02:26:16;13.55;;;5.50;;
73672;SDS011;61972;19.480;-99.240;2023-07-16T02:28:42;22.13;;;6.30;;
73672;SDS011;61972;19.480;-99.240;2023-07-16T02:31:08;17.23;;;5.60;;
73672;SDS011;61972;19.480;-99.240;2023-07-16T02:33:34;14.10;;;6.03;;
73672;SDS011;61972;19.480;-99.240;2023-07-16T02:36:00;15.70;;;5.82;;
73672;SDS011;61972;19.480;-99.240;2023-07-16T02:38:26;14.75;;;5.97;;
73672;SDS011;61972;19.480;-99.240;2023-07-16T02:40:52;12.83;;;5.73;;
73672;SDS011;61972;19.480;-99.240;2023-07-16T02:43:19;14.50;;;5.63;;
73672;SDS011;61972;19.480;-99.240;2023-07-16T02:45:45;13.88;;;5.57;;
73672;SDS011;61972;19.480;-99.240;2023-07-16T02:48:11;13.90;;;5.85;;
73672;SDS011;61972;19.480;-99.240;2023-07-16T02:50:38;14.60;;;5.68;;
73672;SDS011;61972;19.480;-99.240;2023-07-16T02:53:04;15.20;;;5.80;;
73672;SDS011;61972;19.480;-99.240;2023-07-16T02:55:31;16.40;;;5.60;;
73672;SDS011;61972;19.480;-99.240;2023-07-16T02:57:58;16.85;;;5.75;;
73672;SDS011;61972;19.480;-99.240;2023-07-16T03:00:27;20.52;;;5.90;;
73672;SDS011;61972;19.480;-99.240;2023-07-16T03:02:53;13.30;;;5.90;;
73672;SDS011;61972;19.480;-99.240;2023-07-16T03:05:20;15.03;;;5.80;;
73672;SDS011;61972;19.480;-99.240;2023-07-16T03:07:46;14.30;;;5.65;;
73672;SDS011;61972;19.480;-99.240;2023-07-16T03:10:12;12.70;;;6.03;;
73672;SDS011;61972;19.480;-99.240;2023-07-16T03:12:38;14.43;;;6.07;;
73672;SDS011;61972;19.480;-99.240;2023-07-16T03:15:04;15.27;;;5.63;;
73672;SDS011;61972;19.480;-99.240;2023-07-16T03:17:31;15.77;;;6.30;;
73672;SDS011;61972;19.480;-99.240;2023-07-16T03:19:57;16.15;;;5.53;;
73672;SDS011;61972;19.480;-99.240;2023-07-16T03:22:23;12.07;;;5.63;;
73672;SDS011;61972;19.480;-99.240;2023-07-16T03:24:49;14.07;;;5.88;;
73672;SDS011;61972;19.480;-99.240;2023-07-16T03:27:15;13.68;;;5.75;;
73672;SDS011;61972;19.480;-99.240;2023-07-16T03:29:41;14.90;;;6.03;;
73672;SDS011;61972;19.480;-99.240;2023-07-16T03:32:07;16.30;;;5.88;;
73672;SDS011;61972;19.480;-99.240;2023-07-16T03:34:33;16.40;;;5.80;;
73672;SDS011;61972;19.480;-99.240;2023-07-16T03:36:59;18.02;;;6.07;;
73672;SDS011;61972;19.480;-99.240;2023-07-16T03:39:26;15.60;;;5.78;;
73672;SDS011;61972;19.480;-99.240;2023-07-16T03:41:55;13.33;;;5.77;;
73672;SDS011;61972;19.480;-99.240;2023-07-16T03:44:21;13.27;;;6.25;;
73672;SDS011;61972;19.480;-99.240;2023-07-16T03:46:47;14.57;;;5.90;;
73672;SDS011;61972;19.480;-99.240;2023-07-16T03:49:13;19.70;;;6.40;;
73672;SDS011;61972;19.480;-99.240;2023-07-16T03:51:39;17.70;;;6.20;;
73672;SDS011;61972;19.480;-99.240;2023-07-16T03:54:05;16.43;;;6.03;;
73672;SDS011;61972;19.480;-99.240;2023-07-16T03:56:32;15.55;;;6.45;;
73672;SDS011;61972;19.480;-99.240;2023-07-16T03:58:58;17.85;;;6.40;;
73672;SDS011;61972;19.480;-99.240;2023-07-16T04:01:24;14.75;;;6.38;;
73672;SDS011;61972;19.480;-99.240;2023-07-16T04:03:50;12.75;;;6.50;;
73672;SDS011;61972;19.480;-99.240;2023-07-16T04:06:16;15.17;;;5.93;;
73672;SDS011;61972;19.480;-99.240;2023-07-16T04:08:42;15.85;;;6.28;;
73672;SDS011;61972;19.480;-99.240;2023-07-16T04:11:08;13.98;;;6.53;;
73672;SDS011;61972;19.480;-99.240;2023-07-16T04:13:34;13.90;;;6.32;;
73672;SDS011;61972;19.480;-99.240;2023-07-16T04:16:01;14.13;;;6.30;;
73672;SDS011;61972;19.480;-99.240;2023-07-16T04:18:27;15.53;;;6.23;;
73672;SDS011;61972;19.480;-99.240;2023-07-16T04:20:53;12.70;;;6.28;;
73672;SDS011;61972;19.480;-99.240;2023-07-16T04:23:19;15.32;;;6.57;;
73672;SDS011;61972;19.480;-99.240;2023-07-16T04:25:45;16.20;;;6.43;;
73672;SDS011;61972;19.480;-99.240;2023-07-16T04:28:12;18.42;;;6.53;;
73672;SDS011;61972;19.480;-99.240;2023-07-16T04:30:38;17.87;;;6.07;;
73672;SDS011;61972;19.480;-99.240;2023-07-16T04:33:05;15.23;;;6.55;;
73672;SDS011;61972;19.480;-99.240;2023-07-16T04:35:32;19.40;;;6.85;;
73672;SDS011;61972;19.480;-99.240;2023-07-16T04:37:58;17.92;;;6.85;;
73672;SDS011;61972;19.480;-99.240;2023-07-16T04:40:24;16.90;;;6.78;;
73672;SDS011;61972;19.480;-99.240;2023-07-16T04:42:51;14.37;;;6.43;;
73672;SDS011;61972;19.480;-99.240;2023-07-16T04:45:17;12.25;;;6.60;;
73672;SDS011;61972;19.480;-99.240;2023-07-16T04:47:43;13.88;;;6.45;;
73672;SDS011;61972;19.480;-99.240;2023-07-16T04:50:09;20.65;;;6.88;;
73672;SDS011;61972;19.480;-99.240;2023-07-16T04:52:35;15.65;;;6.30;;
73672;SDS011;61972;19.480;-99.240;2023-07-16T04:55:01;14.40;;;6.30;;
73672;SDS011;61972;19.480;-99.240;2023-07-16T04:57:28;16.08;;;6.55;;
73672;SDS011;61972;19.480;-99.240;2023-07-16T04:59:54;13.80;;;6.90;;
73672;SDS011;61972;19.480;-99.240;2023-07-16T05:02:20;16.67;;;6.53;;
73672;SDS011;61972;19.480;-99.240;2023-07-16T05:04:46;14.43;;;6.70;;
73672;SDS011;61972;19.480;-99.240;2023-07-16T05:07:15;17.40;;;6.97;;
73672;SDS011;61972;19.480;-99.240;2023-07-16T05:09:42;13.60;;;6.38;;
73672;SDS011;61972;19.480;-99.240;2023-07-16T05:12:09;15.05;;;6.38;;
73672;SDS011;61972;19.480;-99.240;2023-07-16T05:14:45;19.25;;;6.40;;
73672;SDS011;61972;19.480;-99.240;2023-07-16T05:20:22;14.40;;;6.67;;
73672;SDS011;61972;19.480;-99.240;2023-07-16T05:22:49;15.75;;;6.32;;
73672;SDS011;61972;19.480;-99.240;2023-07-16T05:25:16;12.80;;;6.13;;
73672;SDS011;61972;19.480;-99.240;2023-07-16T05:27:42;18.55;;;6.28;;
73672;SDS011;61972;19.480;-99.240;2023-07-16T05:30:08;12.85;;;6.40;;
73672;SDS011;61972;19.480;-99.240;2023-07-16T05:32:35;19.50;;;6.63;;
73672;SDS011;61972;19.480;-99.240;2023-07-16T05:35:01;15.50;;;6.63;;
73672;SDS011;61972;19.480;-99.240;2023-07-16T05:37:28;17.08;;;6.20;;
73672;SDS011;61972;19.480;-99.240;2023-07-16T05:39:54;16.55;;;6.78;;
73672;SDS011;61972;19.480;-99.240;2023-07-16T05:42:20;16.65;;;6.40;;
73672;SDS011;61972;19.480;-99.240;2023-07-16T05:44:50;14.23;;;6.10;;
73672;SDS011;61972;19.480;-99.240;2023-07-16T05:47:16;14.95;;;7.22;;
73672;SDS011;61972;19.480;-99.240;2023-07-16T05:49:49;18.83;;;6.88;;
73672;SDS011;61972;19.480;-99.240;2023-07-16T05:52:30;16.90;;;6.13;;
73672;SDS011;61972;19.480;-99.240;2023-07-16T05:54:59;15.70;;;6.07;;
73672;SDS011;61972;19.480;-99.240;2023-07-16T05:57:29;13.87;;;6.53;;
73672;SDS011;61972;19.480;-99.240;2023-07-16T05:59:55;16.23;;;6.50;;
73672;SDS011;61972;19.480;-99.240;2023-07-16T06:02:21;15.27;;;6.32;;
73672;SDS011;61972;19.480;-99.240;2023-07-16T06:04:50;13.50;;;7.00;;
73672;SDS011;61972;19.480;-99.240;2023-07-16T06:07:19;14.02;;;6.65;;
73672;SDS011;61972;19.480;-99.240;2023-07-16T06:09:45;13.07;;;6.10;;
73672;SDS011;61972;19.480;-99.240;2023-07-16T06:12:11;17.15;;;6.15;;
73672;SDS011;61972;19.480;-99.240;2023-07-16T06:14:37;15.60;;;6.10;;
73672;SDS011;61972;19.480;-99.240;2023-07-16T06:17:03;14.80;;;5.95;;
73672;SDS011;61972;19.480;-99.240;2023-07-16T06:19:30;16.13;;;6.78;;
73672;SDS011;61972;19.480;-99.240;2023-07-16T06:21:56;13.23;;;6.07;;
73672;SDS011;61972;19.480;-99.240;2023-07-16T06:24:22;18.38;;;6.57;;
73672;SDS011;61972;19.480;-99.240;2023-07-16T06:26:49;13.95;;;6.38;;
73672;SDS011;61972;19.480;-99.240;2023-07-16T06:29:15;16.50;;;6.50;;
73672;SDS011;61972;19.480;-99.240;2023-07-16T06:31:54;18.05;;;6.50;;
73672;SDS011;61972;19.480;-99.240;2023-07-16T06:34:22;16.80;;;6.23;;
73672;SDS011;61972;19.480;-99.240;2023-07-16T06:36:52;16.75;;;6.15;;
73672;SDS011;61972;19.480;-99.240;2023-07-16T06:39:19;13.15;;;6.05;;
73672;SDS011;61972;19.480;-99.240;2023-07-16T06:41:48;16.75;;;5.80;;
73672;SDS011;61972;19.480;-99.240;2023-07-16T06:44:52;16.25;;;6.22;;
73672;SDS011;61972;19.480;-99.240;2023-07-16T06:47:18;11.30;;;6.17;;
73672;SDS011;61972;19.480;-99.240;2023-07-16T06:50:14;15.13;;;5.90;;
73672;SDS011;61972;19.480;-99.240;2023-07-16T06:52:40;15.32;;;6.45;;
73672;SDS011;61972;19.480;-99.240;2023-07-16T06:55:06;16.15;;;6.45;;
73672;SDS011;61972;19.480;-99.240;2023-07-16T06:57:35;15.10;;;6.20;;
73672;SDS011;61972;19.480;-99.240;2023-07-16T07:00:09;13.43;;;6.63;;
73672;SDS011;61972;19.480;-99.240;2023-07-16T07:02:38;12.38;;;6.35;;
73672;SDS011;61972;19.480;-99.240;2023-07-16T07:05:04;14.77;;;6.00;;
73672;SDS011;61972;19.480;-99.240;2023-07-16T07:07:31;14.68;;;6.45;;
73672;SDS011;61972;19.480;-99.240;2023-07-16T07:09:57;15.98;;;6.72;;
73672;SDS011;61972;19.480;-99.240;2023-07-16T07:12:25;12.20;;;6.43;;
73672;SDS011;61972;19.480;-99.240;2023-07-16T07:14:52;12.82;;;6.18;;
73672;SDS011;61972;19.480;-99.240;2023-07-16T07:17:18;14.32;;;6.32;;
73672;SDS011;61972;19.480;-99.240;2023-07-16T07:19:44;15.05;;;6.40;;
73672;SDS011;61972;19.480;-99.240;2023-07-16T07:22:10;13.48;;;6.22;;
73672;SDS011;61972;19.480;-99.240;2023-07-16T07:24:42;13.90;;;5.93;;
73672;SDS011;61972;19.480;-99.240;2023-07-16T07:27:11;16.13;;;6.28;;
73672;SDS011;61972;19.480;-99.240;2023-07-16T07:29:37;16.73;;;5.70;;
73672;SDS011;61972;19.480;-99.240;2023-07-16T07:32:03;12.43;;;5.82;;
73672;SDS011;61972;19.480;-99.240;2023-07-16T07:34:30;14.10;;;5.97;;
73672;SDS011;61972;19.480;-99.240;2023-07-16T07:36:56;13.83;;;5.93;;
73672;SDS011;61972;19.480;-99.240;2023-07-16T07:39:22;15.18;;;6.65;;
73672;SDS011;61972;19.480;-99.240;2023-07-16T07:41:48;12.48;;;6.30;;
73672;SDS011;61972;19.480;-99.240;2023-07-16T07:44:15;14.70;;;6.55;;
73672;SDS011;61972;19.480;-99.240;2023-07-16T07:46:43;13.88;;;5.97;;
73672;SDS011;61972;19.480;-99.240;2023-07-16T07:49:24;12.67;;;5.77;;
73672;SDS011;61972;19.480;-99.240;2023-07-16T07:51:59;11.32;;;5.50;;
73672;SDS011;61972;19.480;-99.240;2023-07-16T07:54:31;13.93;;;5.53;;
73672;SDS011;61972;19.480;-99.240;2023-07-16T07:57:00;10.40;;;5.75;;
73672;SDS011;61972;19.480;-99.240;2023-07-16T07:59:31;13.85;;;5.85;;
73672;SDS011;61972;19.480;-99.240;2023-07-16T08:01:57;12.23;;;5.90;;
73672;SDS011;61972;19.480;-99.240;2023-07-16T08:04:27;13.30;;;5.93;;
73672;SDS011;61972;19.480;-99.240;2023-07-16T08:06:53;14.43;;;7.18;;
73672;SDS011;61972;19.480;-99.240;2023-07-16T08:09:20;14.77;;;5.57;;
73672;SDS011;61972;19.480;-99.240;2023-07-16T08:11:46;17.70;;;6.15;;
73672;SDS011;61972;19.480;-99.240;2023-07-16T08:14:12;13.40;;;5.93;;
73672;SDS011;61972;19.480;-99.240;2023-07-16T08:16:38;13.57;;;6.05;;
73672;SDS011;61972;19.480;-99.240;2023-07-16T08:19:04;16.27;;;6.05;;
73672;SDS011;61972;19.480;-99.240;2023-07-16T08:21:32;14.38;;;6.35;;
73672;SDS011;61972;19.480;-99.240;2023-07-16T08:23:58;16.33;;;6.20;;
73672;SDS011;61972;19.480;-99.240;2023-07-16T08:26:24;14.37;;;6.37;;
73672;SDS011;61972;19.480;-99.240;2023-07-16T08:28:50;14.07;;;5.80;;
73672;SDS011;61972;19.480;-99.240;2023-07-16T08:31:16;15.10;;;5.80;;
73672;SDS011;61972;19.480;-99.240;2023-07-16T08:33:42;13.98;;;6.10;;
73672;SDS011;61972;19.480;-99.240;2023-07-16T08:36:09;13.68;;;5.47;;
73672;SDS011;61972;19.480;-99.240;2023-07-16T08:38:35;13.60;;;5.67;;
73672;SDS011;61972;19.480;-99.240;2023-07-16T08:41:01;13.57;;;5.63;;
73672;SDS011;61972;19.480;-99.240;2023-07-16T08:43:30;13.80;;;5.55;;
73672;SDS011;61972;19.480;-99.240;2023-07-16T08:45:58;14.85;;;5.63;;
73672;SDS011;61972;19.480;-99.240;2023-07-16T08:48:28;12.38;;;5.82;;
73672;SDS011;61972;19.480;-99.240;2023-07-16T08:50:55;15.17;;;6.33;;
73672;SDS011;61972;19.480;-99.240;2023-07-16T08:53:23;15.48;;;5.80;;
73672;SDS011;61972;19.480;-99.240;2023-07-16T08:55:49;12.48;;;6.05;;
73672;SDS011;61972;19.480;-99.240;2023-07-16T08:58:16;11.73;;;5.40;;
73672;SDS011;61972;19.480;-99.240;2023-07-16T09:00:47;10.52;;;5.75;;
73672;SDS011;61972;19.480;-99.240;2023-07-16T09:03:14;10.60;;;4.80;;
73672;SDS011;61972;19.480;-99.240;2023-07-16T09:05:46;13.95;;;5.03;;
73672;SDS011;61972;19.480;-99.240;2023-07-16T09:08:15;9.23;;;5.03;;
73672;SDS011;61972;19.480;-99.240;2023-07-16T09:10:56;10.10;;;5.13;;
73672;SDS011;61972;19.480;-99.240;2023-07-16T09:13:26;11.75;;;5.13;;
73672;SDS011;61972;19.480;-99.240;2023-07-16T09:15:56;10.83;;;5.60;;
73672;SDS011;61972;19.480;-99.240;2023-07-16T09:18:27;10.07;;;4.70;;
73672;SDS011;61972;19.480;-99.240;2023-07-16T09:20:56;10.88;;;5.10;;
73672;SDS011;61972;19.480;-99.240;2023-07-16T09:23:24;11.05;;;4.90;;
73672;SDS011;61972;19.480;-99.240;2023-07-16T09:25:53;10.55;;;5.15;;
73672;SDS011;61972;19.480;-99.240;2023-07-16T09:28:20;9.63;;;4.57;;
73672;SDS011;61972;19.480;-99.240;2023-07-16T09:30:47;8.70;;;4.88;;
73672;SDS011;61972;19.480;-99.240;2023-07-16T09:33:14;9.95;;;4.88;;
73672;SDS011;61972;19.480;-99.240;2023-07-16T09:35:43;7.85;;;4.75;;
73672;SDS011;61972;19.480;-99.240;2023-07-16T09:38:13;9.32;;;4.63;;
73672;SDS011;61972;19.480;-99.240;2023-07-16T09:40:39;8.93;;;4.27;;
73672;SDS011;61972;19.480;-99.240;2023-07-16T09:43:09;9.40;;;4.38;;
73672;SDS011;61972;19.480;-99.240;2023-07-16T09:45:36;10.25;;;4.38;;
73672;SDS011;61972;19.480;-99.240;2023-07-16T09:48:03;17.35;;;4.50;;
73672;SDS011;61972;19.480;-99.240;2023-07-16T09:50:31;9.02;;;4.15;;
73672;SDS011;61972;19.480;-99.240;2023-07-16T09:53:00;10.50;;;4.23;;
73672;SDS011;61972;19.480;-99.240;2023-07-16T09:55:28;6.97;;;4.40;;
73672;SDS011;61972;19.480;-99.240;2023-07-16T09:57:59;10.27;;;4.60;;
73672;SDS011;61972;19.480;-99.240;2023-07-16T10:00:27;8.20;;;4.00;;
73672;SDS011;61972;19.480;-99.240;2023-07-16T10:02:54;8.68;;;4.30;;
73672;SDS011;61972;19.480;-99.240;2023-07-16T10:05:24;6.60;;;4.10;;
73672;SDS011;61972;19.480;-99.240;2023-07-16T10:07:52;9.10;;;4.32;;
73672;SDS011;61972;19.480;-99.240;2023-07-16T10:10:20;9.32;;;4.15;;
73672;SDS011;61972;19.480;-99.240;2023-07-16T10:12:56;7.50;;;3.85;;
73672;SDS011;61972;19.480;-99.240;2023-07-16T10:15:27;8.30;;;4.15;;
73672;SDS011;61972;19.480;-99.240;2023-07-16T10:17:54;7.27;;;4.13;;
73672;SDS011;61972;19.480;-99.240;2023-07-16T10:20:28;8.90;;;3.97;;
73672;SDS011;61972;19.480;-99.240;2023-07-16T10:22:55;8.32;;;3.90;;
73672;SDS011;61972;19.480;-99.240;2023-07-16T10:25:23;11.73;;;4.10;;
73672;SDS011;61972;19.480;-99.240;2023-07-16T10:27:51;6.50;;;3.75;;
73672;SDS011;61972;19.480;-99.240;2023-07-16T10:30:18;7.80;;;3.63;;
73672;SDS011;61972;19.480;-99.240;2023-07-16T10:32:44;7.65;;;4.00;;
73672;SDS011;61972;19.480;-99.240;2023-07-16T10:35:11;6.57;;;3.60;;
73672;SDS011;61972;19.480;-99.240;2023-07-16T10:37:38;7.05;;;3.65;;
73672;SDS011;61972;19.480;-99.240;2023-07-16T10:40:05;6.97;;;3.85;;
73672;SDS011;61972;19.480;-99.240;2023-07-16T10:42:36;8.40;;;3.80;;
73672;SDS011;61972;19.480;-99.240;2023-07-16T10:45:03;6.55;;;3.85;;
73672;SDS011;61972;19.480;-99.240;2023-07-16T10:47:34;6.53;;;3.53;;
73672;SDS011;61972;19.480;-99.240;2023-07-16T10:50:04;7.53;;;3.45;;
73672;SDS011;61972;19.480;-99.240;2023-07-16T10:52:33;11.05;;;3.63;;
73672;SDS011;61972;19.480;-99.240;2023-07-16T10:55:00;7.60;;;3.57;;
73672;SDS011;61972;19.480;-99.240;2023-07-16T10:57:27;6.82;;;3.50;;
73672;SDS011;61972;19.480;-99.240;2023-07-16T10:59:55;7.13;;;3.63;;
73672;SDS011;61972;19.480;-99.240;2023-07-16T11:02:24;5.38;;;3.38;;
73672;SDS011;61972;19.480;-99.240;2023-07-16T11:04:51;7.50;;;3.67;;
73672;SDS011;61972;19.480;-99.240;2023-07-16T11:07:28;5.43;;;3.57;;
73672;SDS011;61972;19.480;-99.240;2023-07-16T11:10:03;6.63;;;3.30;;
73672;SDS011;61972;19.480;-99.240;2023-07-16T11:12:30;6.65;;;3.40;;
73672;SDS011;61972;19.480;-99.240;2023-07-16T11:15:08;5.18;;;3.35;;
73672;SDS011;61972;19.480;-99.240;2023-07-16T11:17:37;6.40;;;3.90;;
73672;SDS011;61972;19.480;-99.240;2023-07-16T11:20:07;4.90;;;3.20;;
73672;SDS011;61972;19.480;-99.240;2023-07-16T11:22:37;6.00;;;3.50;;
73672;SDS011;61972;19.480;-99.240;2023-07-16T11:25:13;6.10;;;3.20;;
73672;SDS011;61972;19.480;-99.240;2023-07-16T11:27:42;5.95;;;3.47;;
73672;SDS011;61972;19.480;-99.240;2023-07-16T11:30:09;4.90;;;3.13;;
73672;SDS011;61972;19.480;-99.240;2023-07-16T11:32:47;5.23;;;3.43;;
73672;SDS011;61972;19.480;-99.240;2023-07-16T11:35:17;5.70;;;3.50;;
73672;SDS011;61972;19.480;-99.240;2023-07-16T11:37:45;5.65;;;3.15;;
73672;SDS011;61972;19.480;-99.240;2023-07-16T11:40:16;6.38;;;3.45;;
73672;SDS011;61972;19.480;-99.240;2023-07-16T11:42:43;6.50;;;3.65;;
73672;SDS011;61972;19.480;-99.240;2023-07-16T11:45:25;5.27;;;3.00;;
73672;SDS011;61972;19.480;-99.240;2023-07-16T11:48:00;4.68;;;3.13;;
73672;SDS011;61972;19.480;-99.240;2023-07-16T11:53:20;5.35;;;3.55;;
73672;SDS011;61972;19.480;-99.240;2023-07-16T11:55:50;7.10;;;3.20;;
73672;SDS011;61972;19.480;-99.240;2023-07-16T11:58:16;4.60;;;2.97;;
73672;SDS011;61972;19.480;-99.240;2023-07-16T12:00:44;4.63;;;3.10;;
73672;SDS011;61972;19.480;-99.240;2023-07-16T12:03:10;4.13;;;2.70;;
73672;SDS011;61972;19.480;-99.240;2023-07-16T12:05:37;5.25;;;3.30;;
73672;SDS011;61972;19.480;-99.240;2023-07-16T12:08:04;5.15;;;3.28;;
73672;SDS011;61972;19.480;-99.240;2023-07-16T12:10:36;6.37;;;3.20;;
73672;SDS011;61972;19.480;-99.240;2023-07-16T12:13:20;4.38;;;2.80;;
73672;SDS011;61972;19.480;-99.240;2023-07-16T12:15:55;4.85;;;2.80;;
73672;SDS011;61972;19.480;-99.240;2023-07-16T12:18:21;5.35;;;3.08;;
73672;SDS011;61972;19.480;-99.240;2023-07-16T12:20:48;3.97;;;2.70;;
73672;SDS011;61972;19.480;-99.240;2023-07-16T12:23:14;4.63;;;3.00;;
73672;SDS011;61972;19.480;-99.240;2023-07-16T12:25:40;4.68;;;3.08;;
73672;SDS011;61972;19.480;-99.240;2023-07-16T12:28:06;5.90;;;3.20;;
73672;SDS011;61972;19.480;-99.240;2023-07-16T12:30:32;4.07;;;2.90;;
73672;SDS011;61972;19.480;-99.240;2023-07-16T12:32:59;4.85;;;2.97;;
73672;SDS011;61972;19.480;-99.240;2023-07-16T12:35:25;5.47;;;3.20;;
73672;SDS011;61972;19.480;-99.240;2023-07-16T12:37:51;5.63;;;2.70;;
73672;SDS011;61972;19.480;-99.240;2023-07-16T12:40:17;6.63;;;3.10;;
73672;SDS011;61972;19.480;-99.240;2023-07-16T12:42:43;5.68;;;2.92;;
73672;SDS011;61972;19.480;-99.240;2023-07-16T12:45:09;4.55;;;2.90;;
73672;SDS011;61972;19.480;-99.240;2023-07-16T12:47:36;8.10;;;3.00;;
73672;SDS011;61972;19.480;-99.240;2023-07-16T12:50:03;6.35;;;2.90;;
73672;SDS011;61972;19.480;-99.240;2023-07-16T12:52:30;5.43;;;2.70;;
73672;SDS011;61972;19.480;-99.240;2023-07-16T12:54:56;5.70;;;2.92;;
73672;SDS011;61972;19.480;-99.240;2023-07-16T12:57:22;3.70;;;2.60;;
73672;SDS011;61972;19.480;-99.240;2023-07-16T12:59:48;4.23;;;2.87;;
73672;SDS011;61972;19.480;-99.240;2023-07-16T13:02:14;5.53;;;2.70;;
73672;SDS011;61972;19.480;-99.240;2023-07-16T13:04:40;7.05;;;2.72;;
73672;SDS011;61972;19.480;-99.240;2023-07-16T13:07:06;3.83;;;2.45;;
73672;SDS011;61972;19.480;-99.240;2023-07-16T13:09:33;9.43;;;2.72;;
73672;SDS011;61972;19.480;-99.240;2023-07-16T13:11:59;7.00;;;3.03;;
73672;SDS011;61972;19.480;-99.240;2023-07-16T13:14:26;7.57;;;3.00;;
73672;SDS011;61972;19.480;-99.240;2023-07-16T13:16:52;6.75;;;2.95;;
73672;SDS011;61972;19.480;-99.240;2023-07-16T13:19:18;5.15;;;2.95;;
73672;SDS011;61972;19.480;-99.240;2023-07-16T13:21:44;5.90;;;3.20;;
73672;SDS011;61972;19.480;-99.240;2023-07-16T13:24:10;5.90;;;3.03;;
73672;SDS011;61972;19.480;-99.240;2023-07-16T13:26:36;4.88;;;2.63;;
73672;SDS011;61972;19.480;-99.240;2023-07-16T13:29:02;5.53;;;3.05;;
73672;SDS011;61972;19.480;-99.240;2023-07-16T13:31:28;5.45;;;3.10;;
73672;SDS011;61972;19.480;-99.240;2023-07-16T13:33:54;5.97;;;3.17;;
73672;SDS011;61972;19.480;-99.240;2023-07-16T13:36:21;4.93;;;2.70;;
73672;SDS011;61972;19.480;-99.240;2023-07-16T13:38:47;7.47;;;2.80;;
73672;SDS011;61972;19.480;-99.240;2023-07-16T13:41:13;6.60;;;2.70;;
73672;SDS011;61972;19.480;-99.240;2023-07-16T13:43:39;5.55;;;3.33;;
73672;SDS011;61972;19.480;-99.240;2023-07-16T13:46:05;5.97;;;3.10;;
73672;SDS011;61972;19.480;-99.240;2023-07-16T13:48:31;5.40;;;2.80;;
73672;SDS011;61972;19.480;-99.240;2023-07-16T13:50:57;5.70;;;3.22;;
73672;SDS011;61972;19.480;-99.240;2023-07-16T13:53:23;5.70;;;3.10;;
73672;SDS011;61972;19.480;-99.240;2023-07-16T13:55:49;5.95;;;3.20;;
73672;SDS011;61972;19.480;-99.240;2023-07-16T13:58:16;5.45;;;2.83;;
73672;SDS011;61972;19.480;-99.240;2023-07-16T14:00:42;4.67;;;2.90;;
73672;SDS011;61972;19.480;-99.240;2023-07-16T14:03:08;5.68;;;3.10;;
73672;SDS011;61972;19.480;-99.240;2023-07-16T14:05:34;7.32;;;2.80;;
73672;SDS011;61972;19.480;-99.240;2023-07-16T14:08:04;5.00;;;2.53;;
73672;SDS011;61972;19.480;-99.240;2023-07-16T14:10:31;5.78;;;3.00;;
73672;SDS011;61972;19.480;-99.240;2023-07-16T14:12:57;5.13;;;3.17;;
73672;SDS011;61972;19.480;-99.240;2023-07-16T14:15:23;5.95;;;2.70;;
73672;SDS011;61972;19.480;-99.240;2023-07-16T14:17:50;4.95;;;3.10;;
73672;SDS011;61972;19.480;-99.240;2023-07-16T14:20:16;6.43;;;2.90;;
73672;SDS011;61972;19.480;-99.240;2023-07-16T14:22:43;5.88;;;2.90;;
73672;SDS011;61972;19.480;-99.240;2023-07-16T14:25:09;7.47;;;2.70;;
73672;SDS011;61972;19.480;-99.240;2023-07-16T14:27:35;4.70;;;2.90;;
73672;SDS011;61972;19.480;-99.240;2023-07-16T14:30:01;6.07;;;2.85;;
73672;SDS011;61972;19.480;-99.240;2023-07-16T14:32:27;5.63;;;2.70;;